createdAt,value
2019-02-23T00:00:27.591Z,99.90
2019-02-23T00:04:34.207Z,99.90
2019-02-23T00:08:39.220Z,99.90
2019-02-23T00:12:44.351Z,99.90
2019-02-23T00:16:49.362Z,99.90
2019-02-23T00:20:54.360Z,99.90
2019-02-23T00:24:59.381Z,99.90
2019-02-23T00:29:04.393Z,99.90
2019-02-23T00:33:09.402Z,99.90
2019-02-23T00:37:14.415Z,99.90
2019-02-23T00:41:19.407Z,99.90
2019-02-23T00:45:24.423Z,99.90
2019-02-23T00:49:36.183Z,99.90
2019-02-23T00:53:36.071Z,99.90
2019-02-23T00:57:41.187Z,99.90
2019-02-23T01:01:46.178Z,99.90
2019-02-23T01:05:51.188Z,99.90
2019-02-23T01:09:56.202Z,99.70
2019-02-23T01:14:01.218Z,99.60
2019-02-23T01:18:06.366Z,99.80
2019-02-23T01:22:11.457Z,99.90
2019-02-23T01:26:16.463Z,99.90
2019-02-23T01:30:21.640Z,99.90
2019-02-23T01:34:26.684Z,99.80
2019-02-23T01:38:31.729Z,99.80
2019-02-23T01:42:36.769Z,99.80
2019-02-23T01:46:41.755Z,99.80
2019-02-23T01:50:46.768Z,99.80
2019-02-23T01:54:51.781Z,99.90
2019-02-23T01:58:56.790Z,99.80
2019-02-23T02:03:01.811Z,99.80
2019-02-23T02:07:07.014Z,99.90
2019-02-23T02:11:13.403Z,99.90
2019-02-23T02:15:18.687Z,99.90
2019-02-23T02:19:23.726Z,99.70
2019-02-23T02:23:28.735Z,99.60
2019-02-23T02:27:33.776Z,99.10
2019-02-23T02:31:38.792Z,99.00
2019-02-23T02:35:43.803Z,98.90
2019-02-23T02:39:48.811Z,98.70
2019-02-23T02:43:53.829Z,98.70
2019-02-23T02:47:58.836Z,98.60
2019-02-23T02:52:03.825Z,98.80
2019-02-23T02:56:08.835Z,98.90
2019-02-23T03:00:14.268Z,99.20
2019-02-23T03:04:19.344Z,99.40
2019-02-23T03:08:24.361Z,99.00
2019-02-23T03:12:29.367Z,98.80
2019-02-23T03:16:34.374Z,98.80
2019-02-23T03:20:39.391Z,98.80
2019-02-23T03:24:44.403Z,98.40
2019-02-23T03:28:49.421Z,97.70
2019-02-23T03:32:54.414Z,97.50
2019-02-23T03:36:59.440Z,97.10
2019-02-23T03:41:05.843Z,96.80
2019-02-23T03:45:10.859Z,96.50
2019-02-23T03:49:15.874Z,96.30
2019-02-23T03:53:21.923Z,95.90
2019-02-23T03:57:26.983Z,95.80
2019-02-23T04:01:32.968Z,95.10
2019-02-23T04:05:37.979Z,94.70
2019-02-23T04:09:42.999Z,94.40
2019-02-23T04:13:48.043Z,94.20
2019-02-23T04:17:53.090Z,94.00
2019-02-23T04:21:58.111Z,94.10
2019-02-23T04:26:03.115Z,93.70
2019-02-23T04:30:09.096Z,93.80
2019-02-23T04:34:14.115Z,93.80
2019-02-23T04:38:19.107Z,93.80
2019-02-23T04:42:24.129Z,93.20
2019-02-23T04:46:29.223Z,93.10
2019-02-23T04:50:34.237Z,92.90
2019-02-23T04:54:40.315Z,92.90
2019-02-23T04:58:45.315Z,92.80
2019-02-23T05:02:50.317Z,92.90
2019-02-23T05:06:55.316Z,92.50
2019-02-23T05:11:00.331Z,92.50
2019-02-23T05:15:07.684Z,92.70
2019-02-23T05:19:12.696Z,92.70
2019-02-23T05:23:17.776Z,92.70
2019-02-23T05:27:22.787Z,92.90
2019-02-23T05:31:27.801Z,93.20
2019-02-23T05:35:32.814Z,93.30
2019-02-23T05:39:37.819Z,93.00
2019-02-23T05:43:42.811Z,92.80
2019-02-23T05:47:47.871Z,92.90
2019-02-23T05:51:52.891Z,93.00
2019-02-23T05:55:57.899Z,93.40
2019-02-23T06:00:02.909Z,93.30
2019-02-23T06:04:07.908Z,92.90
2019-02-23T06:08:13.290Z,92.80
2019-02-23T06:12:18.667Z,93.00
2019-02-23T06:16:23.695Z,92.40
2019-02-23T06:20:28.716Z,92.20
2019-02-23T06:24:33.736Z,91.80
2019-02-23T06:28:38.799Z,91.60
2019-02-23T06:32:43.811Z,90.90
2019-02-23T06:36:48.888Z,90.30
2019-02-23T06:40:53.896Z,89.20
2019-02-23T06:44:58.904Z,87.70
2019-02-23T06:49:03.901Z,83.50
2019-02-23T06:53:08.898Z,77.90
2019-02-23T06:57:15.064Z,75.30
2019-02-23T07:01:20.063Z,67.80
2019-02-23T07:05:25.140Z,65.10
2019-02-23T07:09:30.113Z,60.10
2019-02-23T07:13:35.111Z,56.90
2019-02-23T07:17:40.116Z,57.70
2019-02-23T07:21:45.683Z,58.50
2019-02-23T07:25:50.736Z,56.00
2019-02-23T07:29:57.356Z,54.30
2019-02-23T07:34:02.366Z,51.50
2019-02-23T07:38:07.371Z,50.40
2019-02-23T07:42:12.359Z,46.30
2019-02-23T07:46:17.639Z,42.20
2019-02-23T07:50:22.915Z,40.10
2019-02-23T07:54:28.166Z,37.70
2019-02-23T07:58:33.520Z,36.50
2019-02-23T08:02:38.869Z,37.20
2019-02-23T08:06:44.175Z,36.00
2019-02-23T08:10:49.453Z,34.60
2019-02-23T08:14:54.943Z,34.10
2019-02-23T08:19:00.244Z,35.80
2019-02-23T08:23:05.523Z,33.30
2019-02-23T08:27:11.079Z,33.20
2019-02-23T08:31:17.331Z,31.70
2019-02-23T08:35:22.599Z,28.80
2019-02-23T08:39:27.888Z,27.00
2019-02-23T08:43:33.170Z,27.30
2019-02-23T08:47:38.554Z,26.50
2019-02-23T08:51:43.835Z,26.20
2019-02-23T08:55:49.136Z,27.00
2019-02-23T08:59:54.407Z,28.10
2019-02-23T09:03:59.755Z,27.90
2019-02-23T09:08:05.218Z,28.10
2019-02-23T09:12:10.492Z,25.30
2019-02-23T09:16:16.095Z,24.00
2019-02-23T09:20:29.258Z,23.20
2019-02-23T09:24:29.295Z,22.20
2019-02-23T09:28:34.699Z,21.10
2019-02-23T09:32:39.977Z,23.10
2019-02-23T09:36:46.270Z,22.70
2019-02-23T09:40:51.800Z,21.30
2019-02-23T09:44:57.845Z,21.10
2019-02-23T09:49:03.586Z,20.30
2019-02-23T09:53:11.532Z,21.10
2019-02-23T09:57:15.972Z,21.50
2019-02-23T10:01:21.260Z,20.80
2019-02-23T10:05:26.608Z,21.00
2019-02-23T10:09:34.106Z,19.40
2019-02-23T10:13:41.275Z,19.70
2019-02-23T10:17:47.641Z,20.50
2019-02-23T10:21:54.109Z,19.70
2019-02-23T10:25:59.521Z,20.90
2019-02-23T10:30:08.356Z,20.90
2019-02-23T10:34:13.646Z,20.80
2019-02-23T10:38:18.930Z,19.20
2019-02-23T10:42:24.233Z,19.30
2019-02-23T10:46:29.515Z,19.50
2019-02-23T10:50:34.851Z,19.60
2019-02-23T10:54:40.313Z,20.00
2019-02-23T10:58:45.663Z,21.10
2019-02-23T11:02:51.133Z,21.50
2019-02-23T11:06:56.412Z,19.90
2019-02-23T11:11:01.919Z,19.20
2019-02-23T11:15:12.571Z,21.10
2019-02-23T11:19:17.944Z,20.20
2019-02-23T11:23:23.323Z,20.80
2019-02-23T11:27:29.671Z,19.70
2019-02-23T11:31:34.939Z,19.20
2019-02-23T11:35:40.232Z,20.80
2019-02-23T11:39:45.558Z,20.00
2019-02-23T11:43:50.861Z,21.80
2019-02-23T11:47:56.150Z,20.60
2019-02-23T11:52:01.464Z,21.30
2019-02-23T11:56:06.755Z,21.40
2019-02-23T12:00:14.155Z,21.10
2019-02-23T12:04:19.443Z,20.50
2019-02-23T12:08:25.347Z,20.40
2019-02-23T12:12:30.808Z,20.10
2019-02-23T12:16:36.079Z,20.60
2019-02-23T12:20:41.361Z,22.30
2019-02-23T12:24:46.653Z,23.70
2019-02-23T12:28:51.959Z,22.20
2019-02-23T12:32:57.235Z,23.00
2019-02-23T12:37:02.529Z,23.70
2019-02-23T12:41:07.804Z,23.70
2019-02-23T12:45:13.971Z,23.80
2019-02-23T12:49:19.255Z,24.40
2019-02-23T12:53:24.531Z,23.90
2019-02-23T12:57:29.791Z,23.80
2019-02-23T13:01:35.099Z,23.40
2019-02-23T13:05:40.383Z,24.20
2019-02-23T13:09:46.120Z,24.20
2019-02-23T13:14:03.443Z,24.30
2019-02-23T13:18:22.935Z,24.00
2019-02-23T13:22:36.780Z,24.00
2019-02-23T13:27:01.848Z,24.40
2019-02-23T13:31:15.891Z,23.60
2019-02-23T13:35:39.207Z,22.40
2019-02-23T13:40:02.716Z,22.80
2019-02-23T13:44:22.966Z,22.70
2019-02-23T13:48:45.005Z,21.90
2019-02-23T13:53:02.054Z,21.30
2019-02-23T13:57:12.923Z,21.50
2019-02-23T14:01:24.003Z,21.50
2019-02-23T14:05:44.109Z,22.50
2019-02-23T14:09:52.185Z,21.50
2019-02-23T14:14:30.045Z,21.50
2019-02-23T14:18:47.095Z,21.40
2019-02-23T14:22:58.321Z,21.10
2019-02-23T14:27:09.490Z,23.30
2019-02-23T14:31:41.184Z,21.80
2019-02-23T14:35:49.427Z,23.20
2019-02-23T14:40:06.408Z,25.00
2019-02-23T14:44:20.223Z,25.00
2019-02-23T14:48:34.277Z,26.70
2019-02-23T14:52:53.991Z,27.00
2019-02-23T14:57:26.006Z,28.60
2019-02-23T15:01:51.247Z,29.90
2019-02-23T15:06:31.288Z,29.80
2019-02-23T15:10:56.015Z,29.20
2019-02-23T15:15:10.200Z,29.60
2019-02-23T15:19:21.131Z,29.40
2019-02-23T15:23:44.171Z,30.00
2019-02-23T15:28:26.754Z,30.00
2019-02-23T15:32:59.392Z,30.90
2019-02-23T15:37:13.087Z,31.50
2019-02-23T15:41:50.027Z,31.70
2019-02-23T15:46:28.067Z,32.00
2019-02-23T15:50:33.030Z,31.50
2019-02-23T15:54:38.024Z,32.10
2019-02-23T15:58:43.040Z,32.30
2019-02-23T16:02:48.091Z,32.80
2019-02-23T16:06:53.167Z,33.60
2019-02-23T16:10:58.223Z,33.10
2019-02-23T16:15:03.295Z,33.70
2019-02-23T16:19:08.747Z,33.80
2019-02-23T16:23:13.756Z,34.50
2019-02-23T16:27:18.765Z,38.40
2019-02-23T16:31:23.779Z,38.60
2019-02-23T16:35:28.777Z,39.40
2019-02-23T16:39:33.749Z,41.30
2019-02-23T16:43:38.759Z,43.20
2019-02-23T16:47:43.756Z,43.20
2019-02-23T16:51:48.775Z,43.20
2019-02-23T16:55:53.766Z,43.90
2019-02-23T16:59:58.756Z,44.40
2019-02-23T17:04:03.759Z,44.40
2019-02-23T17:08:08.754Z,44.70
2019-02-23T17:12:15.495Z,46.80
2019-02-23T17:16:20.490Z,49.30
2019-02-23T17:20:25.731Z,50.10
2019-02-23T17:24:30.771Z,51.10
2019-02-23T17:28:35.771Z,51.80
2019-02-23T17:32:41.039Z,53.10
2019-02-23T17:36:46.074Z,52.40
2019-02-23T17:40:51.075Z,53.20
2019-02-23T17:44:56.067Z,54.30
2019-02-23T17:49:01.072Z,56.30
2019-02-23T17:53:06.187Z,57.10
2019-02-23T17:57:12.201Z,57.70
2019-02-23T18:01:17.395Z,58.50
2019-02-23T18:05:22.399Z,60.00
2019-02-23T18:09:27.415Z,60.30
2019-02-23T18:13:34.167Z,62.00
2019-02-23T18:17:39.179Z,62.00
2019-02-23T18:21:46.250Z,59.10
2019-02-23T18:25:51.287Z,64.00
2019-02-23T18:29:56.356Z,63.20
2019-02-23T18:34:02.572Z,63.50
2019-02-23T18:38:07.630Z,64.40
2019-02-23T18:42:12.684Z,66.30
2019-02-23T18:46:18.697Z,68.00
2019-02-23T18:50:24.842Z,66.30
2019-02-23T18:54:29.912Z,63.50
2019-02-23T18:58:35.109Z,60.80
2019-02-23T19:02:40.423Z,62.90
2019-02-23T19:06:45.785Z,63.60
2019-02-23T19:10:50.799Z,66.20
2019-02-23T19:14:55.842Z,65.10
2019-02-23T19:19:00.877Z,65.30
2019-02-23T19:23:07.127Z,65.80
2019-02-23T19:27:12.169Z,65.80
2019-02-23T19:31:17.221Z,65.70
2019-02-23T19:35:22.505Z,66.10
2019-02-23T19:39:27.847Z,64.50
2019-02-23T19:43:33.173Z,65.30
2019-02-23T19:47:39.591Z,65.40
2019-02-23T19:51:44.579Z,65.90
2019-02-23T19:55:49.588Z,66.10
2019-02-23T19:59:54.595Z,66.70
2019-02-23T20:03:59.675Z,68.30
2019-02-23T20:08:04.928Z,69.00
2019-02-23T20:12:09.935Z,72.10
2019-02-23T20:16:14.919Z,72.20
2019-02-23T20:20:19.917Z,72.30
2019-02-23T20:24:25.128Z,73.70
2019-02-23T20:28:31.108Z,75.00
2019-02-23T20:32:36.575Z,76.20
2019-02-23T20:36:41.561Z,77.80
2019-02-23T20:40:46.606Z,78.10
2019-02-23T20:44:51.634Z,77.90
2019-02-23T20:48:56.626Z,79.00
2019-02-23T20:53:01.638Z,78.80
2019-02-23T20:57:13.689Z,78.00
2019-02-23T21:01:13.252Z,77.70
2019-02-23T21:05:20.123Z,77.70
2019-02-23T21:09:26.439Z,78.60
2019-02-23T21:13:31.531Z,80.30
2019-02-23T21:17:37.613Z,80.40
2019-02-23T21:21:42.767Z,80.30
2019-02-23T21:25:47.835Z,80.80
2019-02-23T21:29:53.821Z,80.70
2019-02-23T21:33:59.084Z,80.60
2019-02-23T21:38:04.102Z,80.70
2019-02-23T21:42:09.098Z,81.50
2019-02-23T21:46:14.118Z,81.80
2019-02-23T21:50:19.137Z,83.20
2019-02-23T21:54:24.216Z,84.20
2019-02-23T21:58:29.328Z,84.20
2019-02-23T22:02:34.329Z,84.10
2019-02-23T22:06:39.408Z,85.20
2019-02-23T22:10:44.423Z,85.00
2019-02-23T22:14:49.438Z,85.30
2019-02-23T22:18:54.441Z,85.40
2019-02-23T22:22:59.436Z,84.10
2019-02-23T22:27:04.451Z,83.90
2019-02-23T22:31:09.469Z,84.30
2019-02-23T22:35:14.528Z,84.60
2019-02-23T22:39:19.595Z,84.50
2019-02-23T22:43:24.603Z,85.10
2019-02-23T22:47:29.595Z,84.70
2019-02-23T22:51:34.611Z,84.60
2019-02-23T22:55:39.640Z,85.00
2019-02-23T22:59:44.655Z,85.60
2019-02-23T23:03:49.669Z,86.00
2019-02-23T23:07:55.407Z,86.80
2019-02-23T23:12:00.448Z,87.40
2019-02-23T23:16:05.459Z,87.80
2019-02-23T23:20:10.615Z,88.20
2019-02-23T23:24:15.623Z,87.80
2019-02-23T23:28:20.615Z,87.70
2019-02-23T23:32:26.706Z,87.60
2019-02-23T23:36:31.718Z,87.30
2019-02-23T23:40:36.727Z,86.90
2019-02-23T23:44:41.745Z,87.20
2019-02-23T23:48:46.757Z,88.30
2019-02-23T23:52:51.775Z,88.90
2019-02-23T23:56:56.807Z,89.60
